Time;durP1;ratioP1;P1;durP2;ratioP2;P2;SDS_P1;SDS_P2;PMS_P1;PMS_P2;Temp;Humidity;BMP_temperature;BMP_pressure;BME280_temperature;BME280_humidity;BME280_pressure;Samples;Min_cycle;Max_cycle;Signal;HPM_P1;HPM_P2
2022/07/19 00:01:26;;;;;;;5.82;3.88;;;18.60;99.90;;;;;;4843974;29;20050;-66
2022/07/19 00:03:52;;;;;;;4.82;4.15;;;18.60;99.90;;;;;;4841782;29;20057;-66
2022/07/19 00:06:17;;;;;;;5.13;4.50;;;18.50;99.90;;;;;;4844346;29;20054;-67
2022/07/19 00:08:43;;;;;;;6.40;4.68;;;18.50;99.90;;;;;;4833539;29;20413;-66
2022/07/19 00:11:09;;;;;;;6.28;4.60;;;18.50;99.90;;;;;;4839187;29;20065;-67
2022/07/19 00:13:34;;;;;;;5.03;4.30;;;18.50;99.90;;;;;;4832862;29;20056;-67
2022/07/19 00:16:00;;;;;;;5.80;4.15;;;18.50;99.90;;;;;;4840394;29;20054;-66
2022/07/19 00:18:26;;;;;;;10.07;4.38;;;18.50;99.90;;;;;;4835946;29;20050;-67
2022/07/19 00:20:51;;;;;;;8.38;4.60;;;18.50;99.90;;;;;;4844543;29;20057;-66
2022/07/19 00:23:17;;;;;;;5.82;4.10;;;18.40;99.90;;;;;;4837097;29;20515;-66
2022/07/19 00:25:42;;;;;;;6.03;4.40;;;18.40;99.90;;;;;;4845280;29;20049;-67
2022/07/19 00:28:08;;;;;;;5.30;4.25;;;18.40;99.90;;;;;;4842765;29;20290;-66
2022/07/19 00:30:34;;;;;;;6.10;4.55;;;18.30;99.90;;;;;;4842273;29;20142;-66
2022/07/19 00:32:59;;;;;;;6.03;4.70;;;18.40;99.90;;;;;;4841648;29;20507;-67
2022/07/19 00:35:25;;;;;;;6.38;4.40;;;18.40;99.90;;;;;;4836944;29;20046;-67
2022/07/19 00:37:51;;;;;;;5.65;4.10;;;18.30;99.90;;;;;;4844854;29;20141;-68
2022/07/19 00:40:23;;;;;;;6.07;4.40;;;18.30;99.90;;;;;;4839816;29;20046;-67
2022/07/19 00:42:54;;;;;;;5.25;4.65;;;18.30;99.90;;;;;;4836102;29;20057;-68
2022/07/19 00:45:20;;;;;;;8.18;4.28;;;18.20;99.90;;;;;;4825560;29;20054;-68
2022/07/19 00:47:46;;;;;;;7.13;4.30;;;18.30;99.90;;;;;;4836601;29;20050;-65
2022/07/19 00:50:12;;;;;;;4.72;4.20;;;18.30;99.90;;;;;;4836160;29;20058;-67
2022/07/19 00:52:39;;;;;;;5.10;4.30;;;18.20;99.90;;;;;;4843183;29;20076;-66
2022/07/19 00:55:07;;;;;;;4.45;3.95;;;18.20;99.90;;;;;;4842589;29;20058;-66
2022/07/19 00:57:34;;;;;;;4.93;4.43;;;18.20;99.90;;;;;;4843416;29;20065;-66
2022/07/19 01:00:00;;;;;;;4.70;4.20;;;18.20;99.90;;;;;;4841843;29;20112;-66
2022/07/19 01:02:26;;;;;;;7.57;4.55;;;18.30;99.90;;;;;;4838870;29;20069;-67
2022/07/19 01:04:52;;;;;;;6.70;4.10;;;18.10;99.90;;;;;;4836633;29;20050;-66
2022/07/19 01:07:17;;;;;;;4.75;4.22;;;18.10;99.90;;;;;;4841505;29;20057;-66
2022/07/19 01:09:43;;;;;;;6.07;4.20;;;18.10;99.90;;;;;;4836625;29;20500;-66
2022/07/19 01:12:09;;;;;;;5.55;4.10;;;18.00;99.90;;;;;;4839765;29;20515;-66
2022/07/19 01:14:36;;;;;;;5.60;4.18;;;18.00;99.90;;;;;;4842523;29;20150;-68
2022/07/19 01:17:03;;;;;;;5.88;4.15;;;18.00;99.90;;;;;;4836083;29;20484;-65
2022/07/19 01:19:29;;;;;;;4.97;4.45;;;18.00;99.90;;;;;;4843960;29;20106;-67
2022/07/19 01:21:55;;;;;;;4.70;4.30;;;17.90;99.90;;;;;;4837884;29;20057;-68
2022/07/19 01:24:20;;;;;;;4.57;4.05;;;17.90;99.90;;;;;;4841247;29;20102;-66
2022/07/19 01:26:46;;;;;;;5.35;4.85;;;17.90;99.90;;;;;;4842086;29;20419;-66
2022/07/19 01:29:15;;;;;;;6.07;4.75;;;17.90;99.90;;;;;;4836112;29;20408;-67
2022/07/19 01:31:41;;;;;;;5.38;4.43;;;17.90;99.90;;;;;;4841981;29;20057;-68
2022/07/19 01:34:07;;;;;;;5.90;4.38;;;17.90;99.90;;;;;;4843272;29;20065;-67
2022/07/19 01:36:33;;;;;;;7.22;4.25;;;17.80;99.90;;;;;;4839626;29;20519;-66
2022/07/19 01:38:59;;;;;;;5.70;4.75;;;17.80;99.90;;;;;;4843667;29;20116;-66
2022/07/19 01:41:24;;;;;;;4.85;4.35;;;17.80;99.90;;;;;;4832053;29;20050;-66
2022/07/19 01:43:50;;;;;;;5.50;4.60;;;17.80;99.90;;;;;;4821126;29;20050;-67
2022/07/19 01:46:15;;;;;;;5.57;4.22;;;17.70;99.90;;;;;;4842156;29;20057;-67
2022/07/19 01:48:41;;;;;;;8.23;4.65;;;17.70;99.90;;;;;;4829294;29;20058;-66
2022/07/19 01:51:07;;;;;;;7.43;4.78;;;17.70;99.90;;;;;;4843802;29;20062;-66
2022/07/19 01:53:32;;;;;;;6.50;4.80;;;17.70;99.90;;;;;;4842114;29;20144;-67
2022/07/19 01:55:58;;;;;;;7.82;4.53;;;17.70;99.90;;;;;;4843281;29;20057;-65
2022/07/19 01:58:23;;;;;;;7.13;4.53;;;17.60;99.90;;;;;;4835108;29;20123;-66
2022/07/19 02:00:50;;;;;;;6.13;4.65;;;17.60;99.90;;;;;;4838740;29;20157;-67
2022/07/19 02:03:16;;;;;;;6.05;5.20;;;17.60;99.90;;;;;;4842385;29;20058;-66
2022/07/19 02:05:42;;;;;;;6.47;4.90;;;17.60;99.90;;;;;;4833578;29;20062;-67
2022/07/19 02:08:07;;;;;;;5.22;4.70;;;17.60;99.90;;;;;;4842571;29;20061;-67
2022/07/19 02:10:34;;;;;;;5.88;4.43;;;17.50;99.90;;;;;;4835058;29;20415;-66
2022/07/19 02:12:59;;;;;;;5.03;4.53;;;17.50;99.90;;;;;;4829844;29;21149;-66
2022/07/19 02:15:25;;;;;;;5.97;5.18;;;17.50;99.90;;;;;;4841930;29;20114;-67
2022/07/19 02:17:51;;;;;;;6.00;5.03;;;17.50;99.90;;;;;;4840986;29;20046;-65
2022/07/19 02:20:16;;;;;;;5.43;4.88;;;17.50;99.90;;;;;;4839688;29;20042;-67
2022/07/19 02:22:42;;;;;;;5.88;4.80;;;17.50;99.90;;;;;;4842707;29;20064;-67
2022/07/19 02:25:08;;;;;;;6.63;5.15;;;17.50;99.90;;;;;;4838903;29;20138;-68
2022/07/19 02:27:33;;;;;;;6.40;4.63;;;17.40;99.90;;;;;;4839142;29;20407;-66
2022/07/19 02:29:59;;;;;;;7.40;4.70;;;17.40;99.90;;;;;;4841916;29;20058;-66
2022/07/19 02:32:25;;;;;;;7.15;5.05;;;17.40;99.90;;;;;;4840152;29;20425;-67
2022/07/19 02:34:50;;;;;;;6.43;5.10;;;17.40;99.90;;;;;;4841147;29;20109;-65
2022/07/19 02:37:16;;;;;;;6.93;4.93;;;17.30;99.90;;;;;;4834244;29;20415;-66
2022/07/19 02:39:42;;;;;;;7.35;5.43;;;17.40;99.90;;;;;;4841074;29;20337;-65
2022/07/19 02:42:07;;;;;;;7.10;5.43;;;17.30;99.90;;;;;;4841049;29;20053;-65
2022/07/19 02:44:33;;;;;;;7.65;5.50;;;17.30;99.90;;;;;;4835530;29;20045;-66
2022/07/19 02:46:58;;;;;;;5.72;4.80;;;17.30;99.90;;;;;;4839459;29;20060;-66
2022/07/19 02:49:24;;;;;;;6.65;4.85;;;17.30;99.90;;;;;;4839958;29;20061;-66
2022/07/19 02:51:49;;;;;;;6.65;4.55;;;17.30;99.90;;;;;;4840926;29;20053;-68
2022/07/19 02:54:15;;;;;;;5.20;4.70;;;17.30;99.90;;;;;;4839767;29;20161;-66
2022/07/19 02:56:41;;;;;;;4.93;4.38;;;17.30;99.90;;;;;;4838884;29;20344;-66
2022/07/19 02:59:06;;;;;;;6.97;5.38;;;17.20;99.90;;;;;;4840941;29;20053;-66
2022/07/19 03:01:32;;;;;;;5.07;4.57;;;17.20;99.90;;;;;;4831973;29;20049;-66
2022/07/19 03:03:59;;;;;;;5.82;4.40;;;17.20;99.90;;;;;;4841643;29;20068;-66
2022/07/19 03:06:25;;;;;;;7.75;5.53;;;17.20;99.90;;;;;;4833751;29;20054;-66
2022/07/19 03:08:51;;;;;;;5.22;4.72;;;17.20;99.90;;;;;;4840916;29;20061;-66
2022/07/19 03:11:16;;;;;;;5.28;4.15;;;17.10;99.90;;;;;;4834780;29;20046;-65
2022/07/19 03:13:42;;;;;;;5.22;4.60;;;17.10;99.90;;;;;;4840343;29;20385;-66
2022/07/19 03:16:08;;;;;;;5.15;4.45;;;17.10;99.90;;;;;;4839572;29;20102;-65
2022/07/19 03:18:34;;;;;;;5.75;4.25;;;17.10;99.90;;;;;;4840623;29;20062;-65
2022/07/19 03:21:00;;;;;;;6.78;5.03;;;17.10;99.90;;;;;;4835313;29;20408;-66
2022/07/19 03:23:33;;;;;;;6.15;4.68;;;17.00;99.90;;;;;;4840392;29;20198;-66
2022/07/19 03:25:59;;;;;;;6.97;5.43;;;17.10;99.90;;;;;;4839678;29;20054;-67
2022/07/19 03:28:25;;;;;;;6.00;4.80;;;17.00;99.90;;;;;;4838534;29;20073;-66
2022/07/19 03:30:51;;;;;;;6.22;4.70;;;17.00;99.90;;;;;;4834654;29;20058;-65
2022/07/19 03:33:17;;;;;;;6.45;5.03;;;17.00;99.90;;;;;;4839824;29;20065;-66
2022/07/19 03:35:43;;;;;;;5.30;4.80;;;16.90;99.90;;;;;;4842382;29;20054;-67
2022/07/19 03:38:10;;;;;;;7.95;5.15;;;17.00;99.90;;;;;;4840039;29;20050;-66
2022/07/19 03:40:36;;;;;;;5.32;4.82;;;17.00;99.90;;;;;;4842071;29;20050;-65
2022/07/19 03:43:02;;;;;;;6.65;4.80;;;17.00;99.90;;;;;;4833565;29;20069;-66
2022/07/19 03:45:27;;;;;;;5.70;4.97;;;17.00;99.90;;;;;;4840293;29;20062;-65
2022/07/19 03:47:53;;;;;;;6.53;5.00;;;16.90;99.90;;;;;;4840516;29;20090;-65
2022/07/19 03:50:19;;;;;;;7.03;5.03;;;16.90;99.90;;;;;;4837647;29;20056;-65
2022/07/19 03:52:44;;;;;;;6.40;4.53;;;16.90;99.90;;;;;;4841438;29;20133;-66
2022/07/19 03:55:10;;;;;;;6.78;5.05;;;16.90;99.90;;;;;;4841191;29;20062;-66
2022/07/19 03:57:36;;;;;;;7.47;4.65;;;16.90;99.90;;;;;;4836318;29;20093;-67
2022/07/19 04:00:03;;;;;;;5.60;4.63;;;17.00;99.90;;;;;;4840997;29;20066;-65
2022/07/19 04:02:30;;;;;;;5.68;4.88;;;16.90;99.90;;;;;;4834403;29;20057;-66
2022/07/19 04:04:55;;;;;;;7.47;4.57;;;17.00;99.90;;;;;;4837972;29;20064;-66
2022/07/19 04:07:21;;;;;;;7.00;5.47;;;17.00;99.90;;;;;;4841469;29;20130;-65
2022/07/19 04:09:46;;;;;;;6.45;5.10;;;17.00;99.90;;;;;;4834254;29;20143;-65
2022/07/19 04:12:12;;;;;;;5.90;5.15;;;17.10;99.90;;;;;;4839746;29;20041;-66
2022/07/19 04:14:37;;;;;;;8.63;5.30;;;17.20;99.90;;;;;;4837523;29;20049;-67
2022/07/19 04:17:04;;;;;;;6.80;4.88;;;17.20;99.90;;;;;;4839095;29;20496;-66
2022/07/19 04:19:30;;;;;;;6.72;5.22;;;17.20;99.90;;;;;;4839861;29;20072;-66
2022/07/19 04:21:56;;;;;;;6.82;5.20;;;17.30;99.90;;;;;;4840797;29;20050;-66
2022/07/19 04:24:22;;;;;;;6.03;4.85;;;17.40;99.90;;;;;;4839811;29;20065;-65
2022/07/19 04:26:47;;;;;;;5.70;5.00;;;17.30;99.90;;;;;;4835196;29;20509;-66
2022/07/19 04:29:13;;;;;;;7.82;5.30;;;17.40;99.90;;;;;;4842259;29;20073;-66
2022/07/19 04:31:39;;;;;;;6.53;4.60;;;17.50;99.90;;;;;;4843469;29;20068;-65
2022/07/19 04:34:04;;;;;;;6.20;4.30;;;17.40;99.90;;;;;;4842063;29;20072;-65
2022/07/19 04:36:30;;;;;;;7.30;4.97;;;17.50;99.90;;;;;;4841599;29;20056;-67
2022/07/19 04:38:55;;;;;;;6.80;5.22;;;17.60;99.90;;;;;;4844655;29;20057;-66
2022/07/19 04:41:21;;;;;;;6.47;5.35;;;17.60;99.90;;;;;;4837464;29;20502;-66
2022/07/19 04:43:46;;;;;;;6.70;5.43;;;17.70;99.90;;;;;;4842389;29;20062;-67
2022/07/19 04:46:12;;;;;;;10.77;5.50;;;17.70;99.90;;;;;;4834644;29;20050;-66
2022/07/19 04:48:38;;;;;;;6.80;5.00;;;17.80;99.90;;;;;;4842756;29;20076;-66
2022/07/19 04:51:03;;;;;;;6.72;4.97;;;17.80;99.90;;;;;;4836993;29;20164;-65
2022/07/19 04:53:30;;;;;;;9.45;5.60;;;17.90;99.90;;;;;;4842055;29;20488;-65
2022/07/19 04:55:56;;;;;;;6.90;4.85;;;17.90;99.90;;;;;;4833492;29;20536;-66
2022/07/19 04:58:21;;;;;;;6.15;5.10;;;17.90;99.90;;;;;;4836641;29;20050;-66
2022/07/19 05:00:47;;;;;;;6.00;5.13;;;18.00;99.90;;;;;;4837550;29;20432;-66
2022/07/19 05:03:12;;;;;;;7.28;4.90;;;18.10;99.90;;;;;;4835819;29;20052;-65
2022/07/19 05:05:39;;;;;;;7.88;4.90;;;18.10;99.90;;;;;;4830957;29;20046;-66
2022/07/19 05:08:05;;;;;;;8.18;5.30;;;18.20;99.90;;;;;;4837441;29;20089;-67
2022/07/19 05:10:32;;;;;;;8.05;4.80;;;18.30;99.90;;;;;;4834746;29;20093;-65
2022/07/19 05:12:58;;;;;;;6.60;4.78;;;18.30;99.90;;;;;;4843347;29;20062;-67
2022/07/19 05:15:24;;;;;;;7.93;4.78;;;18.40;99.90;;;;;;4831558;29;20480;-66
2022/07/19 05:17:49;;;;;;;6.05;4.20;;;18.50;99.90;;;;;;4838845;29;20134;-66
2022/07/19 05:20:16;;;;;;;5.75;4.88;;;18.60;99.90;;;;;;4852375;29;20128;-67
2022/07/19 05:22:44;;;;;;;5.72;4.75;;;18.70;99.90;;;;;;4829531;29;20054;-66
2022/07/19 05:25:11;;;;;;;6.13;4.93;;;18.80;99.90;;;;;;4831821;29;20614;-67
2022/07/19 05:27:37;;;;;;;7.47;4.70;;;18.90;99.90;;;;;;4837197;29;20129;-66
2022/07/19 05:30:04;;;;;;;6.15;5.53;;;19.00;99.90;;;;;;4843498;29;20138;-65
2022/07/19 05:32:29;;;;;;;8.90;6.00;;;19.10;99.90;;;;;;4835715;29;20069;-66
2022/07/19 05:34:55;;;;;;;8.05;6.70;;;19.20;99.90;;;;;;4843631;29;20066;-67
2022/07/19 05:37:21;;;;;;;9.45;6.78;;;19.40;99.90;;;;;;4841000;29;20125;-67
2022/07/19 05:39:46;;;;;;;8.10;6.57;;;19.50;99.90;;;;;;4843743;29;20050;-67
2022/07/19 05:42:12;;;;;;;8.25;6.75;;;19.60;99.90;;;;;;4843516;29;20119;-67
2022/07/19 05:44:37;;;;;;;10.13;7.18;;;19.80;99.90;;;;;;4843500;29;20057;-66
2022/07/19 05:47:03;;;;;;;8.15;7.00;;;20.30;99.90;;;;;;4841864;29;20050;-66
2022/07/19 05:49:29;;;;;;;10.52;7.82;;;21.30;99.90;;;;;;4843766;29;20061;-67
2022/07/19 05:51:54;;;;;;;10.25;7.65;;;22.30;99.90;;;;;;4840571;29;20046;-66
2022/07/19 05:54:20;;;;;;;11.60;7.45;;;23.20;99.90;;;;;;4840788;29;20057;-67
2022/07/19 05:56:46;;;;;;;10.15;7.07;;;23.80;99.90;;;;;;4842270;29;20136;-67
2022/07/19 05:59:11;;;;;;;11.35;8.00;;;24.30;99.90;;;;;;4840712;29;20050;-67
2022/07/19 06:01:37;;;;;;;9.90;7.38;;;24.80;99.90;;;;;;4833921;29;20570;-68
2022/07/19 06:04:03;;;;;;;7.97;6.97;;;25.00;99.80;;;;;;4842014;29;20049;-67
2022/07/19 06:06:31;;;;;;;15.52;7.93;;;25.40;96.50;;;;;;4841653;29;20182;-66
2022/07/19 06:08:58;;;;;;;9.50;6.90;;;25.80;93.40;;;;;;4856947;29;20054;-68
2022/07/19 06:11:24;;;;;;;7.88;6.65;;;26.20;92.40;;;;;;4842965;29;20061;-67
2022/07/19 06:13:50;;;;;;;8.13;6.63;;;26.50;91.10;;;;;;4842960;29;20054;-67
2022/07/19 06:16:17;;;;;;;8.77;6.60;;;26.80;86.10;;;;;;4857191;29;20224;-66
2022/07/19 06:18:42;;;;;;;10.40;7.00;;;27.00;81.10;;;;;;4842597;29;20132;-67
2022/07/19 06:21:13;;;;;;;12.80;7.10;;;27.20;76.60;;;;;;4842044;29;20089;-67
2022/07/19 06:23:40;;;;;;;7.77;6.43;;;27.30;73.30;;;;;;4834559;29;20077;-67
2022/07/19 06:26:07;;;;;;;9.02;6.60;;;27.50;73.20;;;;;;4839842;29;20108;-68
2022/07/19 06:28:33;;;;;;;9.38;6.85;;;27.30;70.70;;;;;;4839824;29;20591;-67
2022/07/19 06:30:58;;;;;;;8.38;5.68;;;27.40;70.20;;;;;;4836168;29;20136;-67
2022/07/19 06:33:24;;;;;;;7.75;6.70;;;27.50;70.40;;;;;;4842267;29;20089;-66
2022/07/19 06:35:51;;;;;;;10.75;6.57;;;27.50;69.60;;;;;;4837997;29;20122;-67
2022/07/19 06:38:17;;;;;;;9.02;6.78;;;27.50;70.20;;;;;;4839922;29;20054;-68
2022/07/19 06:40:43;;;;;;;8.68;6.20;;;27.00;70.90;;;;;;4841190;29;20042;-67
2022/07/19 06:43:09;;;;;;;8.07;6.40;;;26.40;74.70;;;;;;4856723;29;20049;-68
2022/07/19 06:45:35;;;;;;;7.78;6.45;;;25.80;80.10;;;;;;4841458;29;20065;-67
2022/07/19 06:48:00;;;;;;;7.78;6.32;;;25.50;85.80;;;;;;4842105;29;20058;-69
2022/07/19 06:50:26;;;;;;;8.18;6.18;;;25.20;93.90;;;;;;4841623;29;20053;-68
2022/07/19 06:52:52;;;;;;;7.90;5.80;;;25.00;95.70;;;;;;4842018;29;20061;-68
2022/07/19 06:55:18;;;;;;;10.65;5.70;;;24.80;96.60;;;;;;4842469;29;20057;-67
2022/07/19 06:57:43;;;;;;;7.82;6.35;;;24.70;97.70;;;;;;4841817;29;20066;-67
2022/07/19 07:00:10;;;;;;;9.00;5.60;;;24.60;98.90;;;;;;4842440;29;20102;-68
2022/07/19 07:02:36;;;;;;;8.27;5.88;;;24.70;99.90;;;;;;4842252;29;20053;-67
2022/07/19 07:05:02;;;;;;;6.90;4.90;;;24.70;99.90;;;;;;4842002;29;20065;-67
2022/07/19 07:07:28;;;;;;;7.72;5.47;;;24.80;99.90;;;;;;4841332;29;20560;-67
2022/07/19 07:09:53;;;;;;;6.75;5.63;;;24.90;99.90;;;;;;4841101;29;20049;-67
2022/07/19 07:12:19;;;;;;;7.18;4.28;;;25.00;99.90;;;;;;4841863;29;20106;-67
2022/07/19 07:14:45;;;;;;;7.53;4.95;;;25.20;99.70;;;;;;4842087;29;20410;-67
2022/07/19 07:17:10;;;;;;;8.25;5.20;;;25.20;97.60;;;;;;4840906;29;20057;-68
2022/07/19 07:19:36;;;;;;;6.28;5.00;;;25.40;97.80;;;;;;4840502;29;20078;-67
2022/07/19 07:22:02;;;;;;;6.45;4.75;;;25.50;97.80;;;;;;4841936;29;20080;-68
2022/07/19 07:24:27;;;;;;;5.15;4.43;;;25.70;97.50;;;;;;4842024;29;20050;-68
2022/07/19 07:26:53;;;;;;;5.70;4.47;;;25.80;96.30;;;;;;4841814;29;20073;-67
2022/07/19 07:29:19;;;;;;;5.65;4.25;;;26.00;97.20;;;;;;4842249;29;20054;-67
2022/07/19 07:31:45;;;;;;;5.57;4.20;;;26.10;94.70;;;;;;4840980;29;20344;-67
2022/07/19 07:34:10;;;;;;;5.80;4.40;;;26.20;94.30;;;;;;4841102;29;20491;-67
2022/07/19 07:36:36;;;;;;;6.88;4.47;;;26.40;95.30;;;;;;4840604;29;20422;-68
2022/07/19 07:39:02;;;;;;;10.15;4.75;;;;;;;;;;4839806;29;20083;-69
2022/07/19 07:41:29;;;;;;;6.20;4.03;;;;;;;;;;4835368;29;20106;-69
2022/07/19 07:43:56;;;;;;;8.48;4.28;;;;;;;;;;4839431;29;20060;-68
2022/07/19 07:46:23;;;;;;;4.78;4.28;;;;;;;;;;4841903;29;20065;-69
2022/07/19 07:48:48;;;;;;;5.30;3.85;;;26.90;99.90;;;;;;4837651;29;20069;-68
2022/07/19 07:51:14;;;;;;;5.85;4.20;;;27.20;99.90;;;;;;4840688;29;20046;-69
2022/07/19 07:53:39;;;;;;;5.75;3.78;;;27.50;99.90;;;;;;4836438;29;20431;-69
2022/07/19 07:56:05;;;;;;;6.47;3.47;;;27.60;99.90;;;;;;4822122;29;20055;-69
2022/07/19 07:58:30;;;;;;;6.95;3.50;;;27.60;99.90;;;;;;4822481;29;20085;-68
2022/07/19 08:00:56;;;;;;;4.07;3.67;;;27.60;99.90;;;;;;4833098;29;20057;-69
2022/07/19 08:03:22;;;;;;;6.28;3.85;;;27.90;99.90;;;;;;4843022;29;20068;-69
2022/07/19 08:05:48;;;;;;;4.28;3.80;;;27.90;99.90;;;;;;4845167;29;20053;-69
2022/07/19 08:08:17;;;;;;;5.40;3.92;;;28.00;99.90;;;;;;4844912;29;20089;-69
2022/07/19 08:10:43;;;;;;;3.40;2.95;;;28.00;99.90;;;;;;4842808;29;20602;-69
2022/07/19 08:13:09;;;;;;;6.43;3.22;;;28.30;99.90;;;;;;4857920;29;20129;-68
2022/07/19 08:15:38;;;;;;;5.70;3.75;;;28.30;99.50;;;;;;4842990;29;20493;-69
2022/07/19 08:18:05;;;;;;;8.52;3.85;;;28.40;99.90;;;;;;4838335;29;20050;-69
2022/07/19 08:20:31;;;;;;;7.07;3.25;;;28.20;79.50;;;;;;4844955;29;20206;-69
2022/07/19 08:22:57;;;;;;;7.70;3.75;;;28.30;77.90;;;;;;4844809;29;20173;-69
2022/07/19 08:25:23;;;;;;;5.43;3.30;;;28.50;76.90;;;;;;4844659;29;20117;-69
2022/07/19 08:27:48;;;;;;;4.78;3.40;;;28.60;75.00;;;;;;4844735;29;20058;-68
2022/07/19 08:30:14;;;;;;;6.22;3.40;;;28.60;72.00;;;;;;4841590;29;20050;-69
2022/07/19 08:32:40;;;;;;;3.97;3.47;;;28.60;71.60;;;;;;4844104;29;20403;-69
2022/07/19 08:35:07;;;;;;;7.45;3.30;;;28.80;70.10;;;;;;4842594;29;20049;-69
2022/07/19 08:37:33;;;;;;;4.80;3.47;;;28.90;69.70;;;;;;4843089;29;20133;-69
2022/07/19 08:39:59;;;;;;;5.82;3.05;;;29.00;72.90;;;;;;4838303;29;20219;-70
2022/07/19 08:42:25;;;;;;;6.63;3.28;;;29.00;72.40;;;;;;4856430;29;20125;-68
2022/07/19 08:44:52;;;;;;;3.13;2.75;;;29.10;71.20;;;;;;4831987;29;20050;-69
2022/07/19 08:47:19;;;;;;;6.45;3.35;;;29.30;71.40;;;;;;4840864;29;20060;-70
2022/07/19 08:49:45;;;;;;;5.90;2.80;;;29.40;71.90;;;;;;4843205;29;20057;-69
2022/07/19 08:52:11;;;;;;;4.75;2.78;;;29.50;69.90;;;;;;4839144;29;20389;-68
2022/07/19 08:54:37;;;;;;;6.45;3.17;;;29.70;67.20;;;;;;4842693;29;20128;-69
2022/07/19 08:59:48;;;;;;;3.22;2.40;;;29.90;65.60;;;;;;4844160;29;20054;-70
2022/07/19 09:02:14;;;;;;;5.03;2.50;;;30.00;64.20;;;;;;4843606;29;20068;-69
2022/07/19 09:04:39;;;;;;;11.27;2.53;;;30.10;63.50;;;;;;4840839;29;20539;-69
2022/07/19 09:07:05;;;;;;;2.50;2.15;;;30.20;63.10;;;;;;4835032;29;20062;-69
2022/07/19 09:09:34;;;;;;;3.15;2.50;;;30.30;63.30;;;;;;4841152;29;20136;-70
2022/07/19 09:12:01;;;;;;;4.65;2.40;;;30.30;60.60;;;;;;4841322;29;20066;-70
2022/07/19 09:14:33;;;;;;;6.68;2.20;;;30.40;59.00;;;;;;4836295;29;20065;-69
2022/07/19 09:17:06;;;;;;;2.78;2.00;;;30.60;58.70;;;;;;4838360;29;20515;-68
2022/07/19 09:19:37;;;;;;;4.72;2.45;;;30.70;58.20;;;;;;4840853;29;20062;-70
2022/07/19 09:22:09;;;;;;;4.22;2.30;;;30.80;57.90;;;;;;4832793;29;20060;-69
2022/07/19 09:24:38;;;;;;;5.45;2.47;;;31.00;57.60;;;;;;4827536;29;20075;-69
2022/07/19 09:27:08;;;;;;;3.25;2.30;;;30.90;56.20;;;;;;4839362;29;20053;-67
2022/07/19 09:29:36;;;;;;;4.78;2.50;;;31.10;56.80;;;;;;4840725;29;20415;-68
2022/07/19 09:32:08;;;;;;;5.20;2.22;;;31.10;56.60;;;;;;4842850;29;20081;-70
2022/07/19 09:34:40;;;;;;;3.35;2.10;;;31.10;56.90;;;;;;4843666;29;20129;-69
2022/07/19 09:37:28;;;;;;;3.63;2.38;;;31.20;55.80;;;;;;4857020;29;20119;-71
2022/07/19 09:39:59;;;;;;;5.72;2.38;;;31.20;54.00;;;;;;4842188;29;20105;-70
2022/07/19 09:42:39;;;;;;;6.05;2.60;;;31.30;56.70;;;;;;4843377;29;20061;-69
2022/07/19 09:45:10;;;;;;;6.28;2.30;;;31.40;56.20;;;;;;4842898;29;20096;-68
2022/07/19 09:47:41;;;;;;;3.30;2.45;;;31.40;56.00;;;;;;4838974;29;20068;-70
2022/07/19 09:50:14;;;;;;;;;;;31.50;56.90;;;;;;4842420;29;20454;-70
2022/07/19 09:52:40;;;;;;;4.70;2.38;;;31.50;56.40;;;;;;4826386;29;19931;-70
2022/07/19 09:55:07;;;;;;;4.57;2.17;;;31.60;55.30;;;;;;4841088;29;20496;-69
2022/07/19 09:57:55;;;;;;;6.22;2.10;;;31.70;54.20;;;;;;4842820;29;20062;-70
2022/07/19 10:00:22;;;;;;;4.95;2.10;;;31.70;53.90;;;;;;4842842;29;20202;-70
2022/07/19 10:02:53;;;;;;;3.08;2.33;;;31.90;53.70;;;;;;4842371;29;20510;-70
2022/07/19 10:05:19;;;;;;;;;;;32.00;53.70;;;;;;4842413;29;20058;-70
2022/07/19 10:07:45;;;;;;;6.38;2.65;;;32.00;52.40;;;;;;4842458;29;19931;-70
2022/07/19 10:10:14;;;;;;;4.30;2.10;;;32.10;53.70;;;;;;4842178;29;20069;-70
2022/07/19 10:12:43;;;;;;;4.35;2.63;;;32.10;52.20;;;;;;4842784;29;20058;-68
2022/07/19 10:15:10;;;;;;;6.40;2.25;;;32.20;53.10;;;;;;4842876;29;20109;-70
2022/07/19 10:17:50;;;;;;;4.68;2.40;;;32.20;52.20;;;;;;4842334;29;20053;-68
2022/07/19 10:20:19;;;;;;;4.45;2.40;;;32.30;51.90;;;;;;4839822;29;20448;-69
2022/07/19 10:22:45;;;;;;;3.88;2.20;;;32.50;52.60;;;;;;4825796;29;20118;-68
2022/07/19 10:25:17;;;;;;;6.05;2.40;;;32.50;51.20;;;;;;4842106;29;20146;-68
2022/07/19 10:27:45;;;;;;;2.97;1.98;;;32.70;51.00;;;;;;4842161;29;20076;-69
2022/07/19 10:30:10;;;;;;;3.95;2.10;;;32.70;50.00;;;;;;4841458;29;20050;-68
2022/07/19 10:32:37;;;;;;;3.90;1.92;;;32.70;50.20;;;;;;4840682;29;20084;-69
2022/07/19 10:35:30;;;;;;;3.67;1.95;;;32.80;49.20;;;;;;4842615;29;20062;-69
2022/07/19 10:38:09;;;;;;;3.15;2.15;;;32.90;47.70;;;;;;4836692;29;20077;-69
2022/07/19 10:40:41;;;;;;;5.30;1.92;;;32.90;47.90;;;;;;4842446;29;20050;-68
2022/07/19 10:43:14;;;;;;;3.90;1.73;;;32.90;47.70;;;;;;4840922;29;20068;-68
2022/07/19 10:45:57;;;;;;;3.53;2.00;;;32.90;47.10;;;;;;4841298;29;20054;-69
2022/07/19 10:48:56;;;;;;;6.55;2.65;;;32.90;49.20;;;;;;4841019;29;20128;-69
2022/07/19 10:51:29;;;;;;;3.92;2.03;;;33.00;48.40;;;;;;4793490;29;20188;-68
2022/07/19 10:54:02;;;;;;;2.40;1.98;;;33.00;46.80;;;;;;4823632;29;20052;-68
2022/07/19 10:56:35;;;;;;;2.85;2.13;;;33.10;47.30;;;;;;4830925;29;20049;-68
2022/07/19 10:59:05;;;;;;;6.03;2.53;;;33.10;48.20;;;;;;4841078;29;20085;-68
2022/07/19 11:01:35;;;;;;;5.25;2.28;;;33.10;47.00;;;;;;4840711;29;20388;-68
2022/07/19 11:04:23;;;;;;;8.50;2.63;;;33.10;47.00;;;;;;4842062;29;20107;-68
2022/07/19 11:06:49;;;;;;;3.33;2.17;;;33.20;46.80;;;;;;4828117;29;20165;-69
2022/07/19 11:09:14;;;;;;;3.70;2.33;;;33.30;47.70;;;;;;4842265;29;20132;-69
2022/07/19 11:11:40;;;;;;;6.53;2.47;;;33.40;48.20;;;;;;4839780;29;20065;-68
2022/07/19 11:14:05;;;;;;;4.95;2.30;;;33.40;47.50;;;;;;4842961;29;20054;-68
2022/07/19 11:16:31;;;;;;;4.68;2.10;;;33.40;47.20;;;;;;4840715;29;20069;-68
2022/07/19 11:19:10;;;;;;;6.15;2.90;;;33.60;46.90;;;;;;4840807;29;20065;-69
2022/07/19 11:21:37;;;;;;;3.05;2.08;;;33.50;46.90;;;;;;4842615;29;20074;-68
2022/07/19 11:24:04;;;;;;;4.40;2.33;;;33.60;48.30;;;;;;4838906;29;20056;-68
2022/07/19 11:26:40;;;;;;;3.95;2.10;;;33.60;48.00;;;;;;4842504;29;20076;-68
2022/07/19 11:29:05;;;;;;;3.58;2.20;;;33.80;47.90;;;;;;4842390;29;20054;-68
2022/07/19 11:31:31;;;;;;;4.55;2.33;;;33.90;46.80;;;;;;4842340;29;20403;-68
2022/07/19 11:33:57;;;;;;;3.22;2.38;;;33.90;47.00;;;;;;4841561;29;20050;-67
2022/07/19 11:36:25;;;;;;;3.65;1.95;;;33.90;47.00;;;;;;4844217;29;20072;-68
2022/07/19 11:38:54;;;;;;;4.82;2.60;;;34.00;47.10;;;;;;4844131;29;20449;-69
2022/07/19 11:41:27;;;;;;;4.32;2.05;;;34.00;46.30;;;;;;4839677;29;20385;-69
2022/07/19 11:43:57;;;;;;;2.70;2.28;;;34.10;46.10;;;;;;4828943;29;20136;-70
2022/07/19 11:46:28;;;;;;;5.45;2.15;;;34.20;46.30;;;;;;4844705;29;20516;-68
2022/07/19 11:48:59;;;;;;;6.38;2.33;;;34.30;46.30;;;;;;4843681;29;20081;-70
2022/07/19 11:51:25;;;;;;;4.35;2.30;;;34.30;47.50;;;;;;4843398;29;20061;-70
2022/07/19 11:53:54;;;;;;;3.25;2.03;;;34.40;46.70;;;;;;4836016;29;20061;-69
2022/07/19 11:56:30;;;;;;;2.88;2.40;;;34.50;46.10;;;;;;4844271;29;20082;-69
2022/07/19 11:58:58;;;;;;;4.63;1.83;;;34.50;45.00;;;;;;4845282;29;20050;-69
2022/07/19 12:01:35;;;;;;;4.35;1.83;;;34.70;44.70;;;;;;4844581;29;20094;-69
2022/07/19 12:04:05;;;;;;;4.55;2.20;;;34.60;44.00;;;;;;4845008;29;20495;-69
2022/07/19 12:06:43;;;;;;;4.28;2.08;;;34.60;43.90;;;;;;4843409;29;20415;-70
2022/07/19 12:09:16;;;;;;;3.33;1.80;;;34.70;44.40;;;;;;4845379;29;20061;-70
2022/07/19 12:11:45;;;;;;;4.35;2.30;;;34.80;44.10;;;;;;4840521;29;20120;-69
2022/07/19 12:14:28;;;;;;;3.17;2.10;;;34.80;43.80;;;;;;4845262;29;20058;-70
2022/07/19 12:17:20;;;;;;;5.50;1.60;;;34.90;42.60;;;;;;4836429;29;20586;-70
2022/07/19 12:19:54;;;;;;;2.90;1.92;;;34.90;42.70;;;;;;4831116;29;20057;-69
2022/07/19 12:22:51;;;;;;;2.90;1.77;;;34.90;42.20;;;;;;4844804;29;20057;-71
2022/07/19 12:25:35;;;;;;;3.60;1.80;;;34.90;42.30;;;;;;4825012;29;20058;-68
2022/07/19 12:28:01;;;;;;;4.60;1.77;;;34.90;42.20;;;;;;4841400;29;20077;-68
2022/07/19 12:30:28;;;;;;;4.65;1.80;;;34.90;43.70;;;;;;4845232;29;20357;-68
2022/07/19 12:33:12;;;;;;;3.88;1.58;;;34.90;43.80;;;;;;4837403;29;20108;-69
2022/07/19 12:35:45;;;;;;;3.78;1.75;;;;;;;;;;4844842;29;20066;-68
2022/07/19 12:38:13;;;;;;;3.75;1.67;;;35.10;41.70;;;;;;4844356;29;20057;-68
2022/07/19 12:40:41;;;;;;;5.00;1.63;;;35.20;43.10;;;;;;4845189;29;20054;-68
2022/07/19 12:43:09;;;;;;;3.15;1.77;;;35.20;41.30;;;;;;4834599;29;20054;-68
2022/07/19 12:45:53;;;;;;;3.13;1.48;;;35.20;41.50;;;;;;4844978;29;20167;-68
2022/07/19 12:48:18;;;;;;;2.88;1.30;;;35.20;39.00;;;;;;4839994;29;20150;-67
2022/07/19 12:50:48;;;;;;;3.53;1.40;;;35.20;40.30;;;;;;4839060;29;20194;-68
2022/07/19 12:53:16;;;;;;;2.70;1.40;;;35.20;39.70;;;;;;4834505;29;20173;-68